Abbott
UTM 11U Easting = 46 4305, Northing = 56 77958     Elevation = 2130 m
Note to Users: This site contains raw data and is presented "as is" and in real time. Although reasonable care is exercised in providing this information, inaccuracies or omissions may occur due to the properties of weather and data collection systems. The Avalanche Control Section, responsible for its collection, disclaims all responsibility for the accuracy of the information.
Date Max Temp (deg C) Min Temp (deg C) Rel Hum (%) 1 Hr Precip (mm) HS (cm) Wind Dir (1 Hr Avg) Wind Spd (kph) (1 Hr Avg) Max Wind Speed (kph)
2021-05-05 20:00 3 3 34 0.0 218 N 3 8
2021-05-05 21:00 4 3 28 0.0 218 NW 2 5
2021-05-05 22:00 4 3 31 0.0 218 SW 4 7
2021-05-05 23:00 4 3 36 0.0 218 SW 3 7
2021-05-06 00:00 4 3 39 0.0 218 SW 4 10
2021-05-06 01:00 4 3 40 0.0 218 SW 4 12
2021-05-06 02:00 4 3 40 0.0 218 SW 4 11
2021-05-06 03:00 4 3 40 0.0 218 NW 4 10
2021-05-06 04:00 4 2 41 0.0 217 NW 5 17
2021-05-06 05:00 4 2 42 0.0 218 NW 4 19
2021-05-06 06:00 4 3 41 0.0 218 S 6 13
2021-05-06 07:00 5 3 40 0.0 217 S 7 12
2021-05-06 08:00 5 4 40 0.0 218 S 7 12
2021-05-06 09:00 6 4 42 0.0 218 S 5 9
2021-05-06 10:00 7 5 37 0.0 218 S 4 10
2021-05-06 11:00 7 4 40 0.0 218 S 8 21
2021-05-06 12:00 6 5 41 0.0 217 S 8 15
2021-05-06 13:00 7 6 42 0.0 217 SE 11 24
2021-05-06 14:00 7 7 40 0.0 216 SE 9 20
2021-05-06 15:00 8 7 37 0.0 216 SE 17 30
2021-05-06 16:00 8 7 37 0.0 216 SE 19 38
2021-05-06 17:00 9 7 39 0.0 216 S 8 23
2021-05-06 18:00 8 7 42 0.0 216 S 4 14
2021-05-06 19:00 9 7 40 0.0 216 S 8 37